Time;durP1;ratioP1;P1;durP2;ratioP2;P2;SDS_P1;SDS_P2;PMS_P1;PMS_P2;Temp;Humidity;BMP_temperature;BMP_pressure;BME280_temperature;BME280_humidity;BME280_pressure;Samples;Min_cycle;Max_cycle;Signal;HPM_P1;HPM_P2
2022/01/04 00:00:07;;;;;;;6.78;3.30;;;;;;;18.75;57.15;99048.59;5093892;28;20020;-81
2022/01/04 00:02:33;;;;;;;7.30;3.30;;;;;;;18.77;57.16;99038.81;5078327;28;20034;-85
2022/01/04 00:05:02;;;;;;;4.85;2.75;;;;;;;18.76;57.36;99047.69;5077852;28;20020;-84
2022/01/04 00:07:37;;;;;;;6.28;2.90;;;;;;;18.79;57.22;99042.19;5093576;28;20115;-85
2022/01/04 00:10:03;;;;;;;6.80;3.17;;;;;;;18.78;57.24;99045.78;5093170;28;20031;-83
2022/01/04 00:15:17;;;;;;;7.75;3.25;;;;;;;18.81;57.34;99028.03;5077943;28;20087;-84
2022/01/04 00:17:45;;;;;;;7.30;3.13;;;;;;;18.80;57.25;99027.19;5077753;28;20025;-85
2022/01/04 00:20:11;;;;;;;5.35;2.75;;;;;;;18.79;57.51;99030.75;5093006;28;20416;-85
2022/01/04 00:22:37;;;;;;;6.65;2.92;;;;;;;18.78;57.27;99019.34;5077147;28;20078;-82
2022/01/04 00:25:06;;;;;;;7.47;2.95;;;;;;;18.79;57.34;99021.06;5092825;28;20367;-83
2022/01/04 00:27:35;;;;;;;5.43;2.55;;;;;;;18.79;57.14;99007.84;5093020;28;20021;-84
2022/01/04 00:30:03;;;;;;;5.47;2.72;;;;;;;18.79;57.04;99005.19;5076763;28;20044;-83
2022/01/04 00:32:29;;;;;;;4.72;2.80;;;;;;;18.76;57.28;99008.03;5075550;28;20048;-84
2022/01/04 00:34:55;;;;;;;5.47;2.65;;;;;;;18.77;57.31;98999.16;5075541;28;20044;-86
2022/01/04 00:37:20;;;;;;;5.85;2.78;;;;;;;18.78;57.24;98992.06;5075966;28;20040;-83
2022/01/04 00:39:46;;;;;;;5.03;2.70;;;;;;;18.77;57.22;99001.81;5075810;28;20467;-86
2022/01/04 00:42:14;;;;;;;6.40;3.05;;;;;;;18.78;56.83;98987.63;5076098;28;20039;-86
2022/01/04 00:44:39;;;;;;;5.22;2.67;;;;;;;18.78;56.85;98986.78;5075773;28;20029;-84
2022/01/04 00:47:08;;;;;;;4.90;2.60;;;;;;;18.79;56.93;98984.03;5075855;28;20024;-84
2022/01/04 00:49:40;;;;;;;4.72;2.47;;;;;;;18.77;57.06;98972.72;5075824;28;20048;-83
2022/01/04 00:52:16;;;;;;;5.28;2.25;;;;;;;18.76;56.86;98973.66;5075865;28;20447;-84
2022/01/04 00:54:41;;;;;;;5.90;2.72;;;;;;;18.76;56.90;98978.97;5075212;28;20368;-82
2022/01/04 00:57:07;;;;;;;5.18;2.47;;;;;;;18.76;57.16;98972.81;5092197;28;20094;-81
2022/01/04 00:59:38;;;;;;;6.97;2.95;;;;;;;18.75;56.89;98963.19;5076506;28;20039;-81
2022/01/04 01:02:04;;;;;;;5.97;2.70;;;;;;;18.74;56.81;98959.69;5092114;28;20316;-80
2022/01/04 01:04:38;;;;;;;5.18;2.60;;;;;;;18.77;56.94;98959.50;5076672;28;20053;-80
2022/01/04 01:07:03;;;;;;;5.13;2.60;;;;;;;18.75;57.00;98961.38;5076236;28;20056;-80
2022/01/04 01:09:49;;;;;;;6.90;2.70;;;;;;;18.75;57.03;98956.09;5075591;28;20043;-81
2022/01/04 01:12:15;;;;;;;5.15;2.42;;;;;;;18.73;56.96;98962.41;5076265;28;20032;-80
2022/01/04 01:14:40;;;;;;;4.95;2.50;;;;;;;18.71;57.14;98951.09;5075359;28;20028;-81
2022/01/04 01:17:09;;;;;;;5.32;2.50;;;;;;;18.75;57.15;98961.38;5092322;28;20029;-81
2022/01/04 01:19:37;;;;;;;6.78;2.60;;;;;;;18.76;57.17;98946.38;5075339;28;20374;-80
2022/01/04 01:22:09;;;;;;;5.22;2.58;;;;;;;18.73;57.04;98947.41;5076317;28;20454;-80
2022/01/04 01:24:34;;;;;;;5.45;2.50;;;;;;;18.72;57.11;98939.56;5075888;28;20021;-81
2022/01/04 01:27:09;;;;;;;6.72;2.72;;;;;;;18.73;56.93;98938.63;5075411;28;20123;-81
2022/01/04 01:29:34;;;;;;;5.43;2.50;;;;;;;18.76;56.94;98935.81;5076238;28;20029;-82
2022/01/04 01:32:08;;;;;;;5.38;2.40;;;;;;;18.73;57.21;98936.84;5076032;28;20043;-79
2022/01/04 01:34:34;;;;;;;5.18;2.38;;;;;;;18.74;57.15;98938.53;5075037;28;20064;-79
2022/01/04 01:37:07;;;;;;;5.93;2.22;;;;;;;18.76;56.96;98939.31;5075404;28;20039;-81
2022/01/04 01:39:39;;;;;;;5.35;2.63;;;;;;;18.75;56.97;98942.03;5075159;28;20134;-82
2022/01/04 01:42:05;;;;;;;4.40;2.20;;;;;;;18.75;56.95;98929.66;5076535;28;20032;-80
2022/01/04 01:44:39;;;;;;;6.13;2.60;;;;;;;18.75;57.03;98929.66;5091568;28;20358;-80
2022/01/04 01:47:05;;;;;;;3.80;1.95;;;;;;;18.74;57.22;98920.03;5076441;28;20066;-81
2022/01/04 01:49:34;;;;;;;4.35;2.05;;;;;;;18.75;57.17;98927.00;5075449;28;20033;-82
2022/01/04 01:52:00;;;;;;;6.88;2.00;;;;;;;18.75;56.97;98916.44;5075417;28;20036;-81
2022/01/04 01:54:27;;;;;;;4.18;2.10;;;;;;;18.75;56.92;98929.66;5092151;28;20462;-81
2022/01/04 01:56:53;;;;;;;4.95;2.08;;;;;;;18.74;56.83;98919.19;5074540;28;20046;-79
2022/01/04 01:59:18;;;;;;;4.38;2.13;;;;;;;18.76;57.15;98928.75;5090960;28;20058;-79
2022/01/04 02:01:47;;;;;;;5.45;2.55;;;;;;;18.75;56.92;98924.38;5074338;28;20107;-81
2022/01/04 02:04:13;;;;;;;4.72;2.47;;;;;;;18.75;56.95;98928.81;5074301;28;20024;-80
2022/01/04 02:06:39;;;;;;;4.78;2.28;;;;;;;18.75;56.75;98929.66;5075125;28;20167;-80
2022/01/04 02:09:10;;;;;;;5.57;2.22;;;;;;;18.74;56.74;98925.31;5074907;28;20358;-81
2022/01/04 02:11:39;;;;;;;6.10;2.80;;;;;;;18.76;56.73;98922.59;5075261;28;20465;-79
2022/01/04 02:14:08;;;;;;;4.75;2.17;;;;;;;18.75;56.85;98927.00;5074082;28;20047;-79
2022/01/04 02:16:39;;;;;;;5.95;2.33;;;;;;;18.75;57.09;98921.72;5075211;28;20059;-80
2022/01/04 02:19:08;;;;;;;4.63;2.55;;;;;;;18.72;57.11;98914.00;5073714;28;20417;-81
2022/01/04 02:21:43;;;;;;;7.20;2.40;;;;;;;18.73;56.96;98912.19;5074949;28;20439;-81
2022/01/04 02:24:08;;;;;;;4.93;2.28;;;;;;;18.76;57.10;98914.66;5075250;28;20025;-81
2022/01/04 02:26:39;;;;;;;5.88;2.33;;;;;;;18.75;56.69;98912.97;5090776;28;20108;-81
2022/01/04 02:29:08;;;;;;;6.25;2.47;;;;;;;18.75;56.74;98907.69;5073905;28;20216;-80
2022/01/04 02:31:40;;;;;;;4.93;2.20;;;;;;;18.75;57.02;98897.94;5073990;28;20024;-80
2022/01/04 02:34:05;;;;;;;4.70;2.22;;;;;;;18.75;56.82;98897.09;5073914;28;20047;-79
2022/01/04 02:36:39;;;;;;;4.05;2.05;;;;;;;18.76;56.69;98899.66;5090921;28;20359;-81
2022/01/04 02:39:11;;;;;;;4.53;2.35;;;;;;;18.73;56.91;98897.19;5075150;28;20039;-80
2022/01/04 02:41:39;;;;;;;4.65;2.10;;;;;;;18.73;56.66;98897.19;5075075;28;20029;-80
2022/01/04 02:44:17;;;;;;;3.88;2.08;;;;;;;18.74;56.99;98892.78;5075129;28;20032;-81
2022/01/04 02:46:42;;;;;;;4.85;2.08;;;;;;;18.73;56.96;98883.97;5074937;28;20024;-81
2022/01/04 02:49:11;;;;;;;4.13;2.35;;;;;;;18.73;56.48;98881.34;5075116;28;20025;-80
2022/01/04 02:51:39;;;;;;;4.35;2.05;;;;;;;18.74;56.85;98890.13;5074991;28;20024;-80
2022/01/04 02:54:07;;;;;;;4.60;2.00;;;;;;;18.74;56.50;98882.19;5073812;28;20039;-80
2022/01/04 02:56:36;;;;;;;4.20;2.00;;;;;;;18.75;56.78;98875.97;5076701;28;20035;-80
2022/01/04 02:59:10;;;;;;;5.18;2.20;;;;;;;18.74;56.71;98880.38;5079011;28;20450;-82
2022/01/04 03:01:39;;;;;;;3.67;2.30;;;;;;;18.73;56.79;98878.69;5079423;28;20025;-80
2022/01/04 03:04:10;;;;;;;6.07;2.40;;;;;;;18.72;56.54;98881.41;5079219;28;20024;-81
2022/01/04 03:06:40;;;;;;;5.10;2.35;;;;;;;18.73;56.52;98881.34;5094841;28;20016;-81
2022/01/04 03:09:12;;;;;;;4.60;1.90;;;;;;;18.72;56.50;98874.34;5079089;28;20078;-81
2022/01/04 03:11:40;;;;;;;3.42;1.88;;;;;;;18.72;56.83;98870.84;5078754;28;20031;-80
2022/01/04 03:14:11;;;;;;;4.03;2.00;;;;;;;18.71;56.83;98864.72;5078380;28;20024;-81
2022/01/04 03:16:39;;;;;;;4.75;2.10;;;;;;;18.71;56.66;98858.59;5078538;28;20024;-79
2022/01/04 03:19:14;;;;;;;3.80;2.10;;;;;;;18.72;56.34;98850.56;5078433;28;20089;-80
2022/01/04 03:21:43;;;;;;;4.35;2.22;;;;;;;18.73;56.52;98846.97;5078688;28;20043;-80
2022/01/04 03:24:11;;;;;;;4.05;2.10;;;;;;;18.72;56.43;98841.78;5077675;28;20029;-81
2022/01/04 03:26:41;;;;;;;4.40;2.00;;;;;;;18.73;56.51;98846.13;5078651;28;20052;-80
2022/01/04 03:29:09;;;;;;;4.22;1.90;;;;;;;18.71;56.46;98843.59;5077539;28;20031;-80
2022/01/04 03:31:39;;;;;;;5.30;2.10;;;;;;;18.70;56.35;98820.72;5079033;28;20336;-82
2022/01/04 03:34:11;;;;;;;3.65;1.85;;;;;;;18.71;56.50;98819.81;5095064;28;20103;-80
2022/01/04 03:36:37;;;;;;;5.07;2.30;;;;;;;18.71;56.60;98822.44;5078077;28;20350;-83
2022/01/04 03:39:10;;;;;;;4.18;2.00;;;;;;;18.71;56.25;98817.16;5077804;28;20028;-80
2022/01/04 03:41:39;;;;;;;4.25;1.80;;;;;;;18.69;56.50;98808.47;5077933;28;20038;-84
2022/01/04 03:44:06;;;;;;;4.00;2.00;;;;;;;18.70;56.56;98796.94;5077368;28;20463;-83
2022/01/04 03:46:32;;;;;;;4.60;1.83;;;;;;;18.70;56.59;98809.31;5077166;28;20032;-83
2022/01/04 03:48:58;;;;;;;4.10;1.95;;;;;;;18.71;56.43;98801.31;5077236;28;20473;-81
2022/01/04 03:51:24;;;;;;;4.30;2.15;;;;;;;18.70;56.39;98794.28;5077315;28;20021;-85
2022/01/04 03:53:49;;;;;;;4.20;2.00;;;;;;;18.68;56.35;98790.91;5077269;28;20336;-82
2022/01/04 03:56:15;;;;;;;5.07;2.10;;;;;;;18.69;56.26;98797.06;5077316;28;20032;-84
2022/01/04 03:58:41;;;;;;;4.60;1.70;;;;;;;18.70;56.47;98799.59;5077060;28;20028;-81
2022/01/04 04:01:07;;;;;;;4.40;2.13;;;;;;;18.68;56.06;98788.25;5075922;28;20066;-81
2022/01/04 04:03:33;;;;;;;3.75;1.88;;;;;;;18.68;56.45;98785.63;5076587;28;20028;-79
2022/01/04 04:05:59;;;;;;;3.83;1.95;;;;;;;18.65;56.34;98780.53;5076194;28;20020;-80
2022/01/04 04:08:25;;;;;;;4.10;1.95;;;;;;;18.67;56.07;98768.06;5092294;28;20111;-83
2022/01/04 04:10:50;;;;;;;5.40;2.30;;;;;;;18.67;56.14;98765.44;5076944;28;20107;-80
2022/01/04 04:13:16;;;;;;;4.00;1.80;;;;;;;18.66;56.27;98758.47;5077315;28;20024;-80
2022/01/04 04:15:42;;;;;;;4.60;2.00;;;;;;;18.66;56.21;98755.81;5076582;28;20458;-80
2022/01/04 04:18:09;;;;;;;4.65;2.20;;;;;;;18.66;56.26;98750.53;5077337;28;20108;-80
2022/01/04 04:20:36;;;;;;;3.95;2.05;;;;;;;18.64;56.34;98741.81;5076669;28;20033;-79
2022/01/04 04:23:02;;;;;;;3.88;1.77;;;;;;;18.64;56.12;98740.03;5075750;28;20029;-79
2022/01/04 04:25:28;;;;;;;2.97;1.52;;;;;;;18.64;56.17;98726.84;5076735;28;20103;-79
2022/01/04 04:27:54;;;;;;;4.15;1.95;;;;;;;18.66;56.05;98729.38;5076871;28;20116;-80
2022/01/04 04:30:19;;;;;;;4.63;2.25;;;;;;;18.68;55.92;98732.78;5076573;28;20378;-79
2022/01/04 04:32:45;;;;;;;5.82;2.05;;;;;;;18.67;56.03;98757.50;5092307;28;20047;-79
2022/01/04 04:35:10;;;;;;;5.05;2.10;;;;;;;18.65;55.86;98751.47;5076223;28;20379;-80
2022/01/04 04:37:36;;;;;;;3.85;2.03;;;;;;;18.65;56.15;98754.94;5076378;28;20062;-81
2022/01/04 04:40:03;;;;;;;4.60;1.95;;;;;;;18.65;55.96;98748.84;5075298;28;20025;-80
2022/01/04 04:42:28;;;;;;;3.67;1.85;;;;;;;18.63;56.02;98740.13;5075411;28;20474;-79
2022/01/04 04:44:54;;;;;;;4.22;2.00;;;;;;;18.64;55.96;98739.19;5076081;28;20025;-80
2022/01/04 04:47:20;;;;;;;5.05;2.13;;;;;;;18.64;55.88;98739.19;5092014;28;20056;-80
2022/01/04 04:49:45;;;;;;;4.47;1.63;;;;;;;18.64;56.20;98731.25;5076166;28;20451;-80
2022/01/04 04:52:11;;;;;;;5.07;2.15;;;;;;;18.65;56.12;98732.97;5075134;28;20042;-80
2022/01/04 04:54:36;;;;;;;4.10;1.88;;;;;;;18.64;55.98;98726.84;5075065;28;20031;-80
2022/01/04 04:57:02;;;;;;;5.50;2.25;;;;;;;18.64;56.02;98733.91;5076205;28;20040;-80
2022/01/04 04:59:28;;;;;;;4.13;1.90;;;;;;;18.62;56.07;98722.59;5092035;28;20094;-80
2022/01/04 05:01:54;;;;;;;3.97;1.65;;;;;;;18.60;56.24;98724.50;5075737;28;20355;-80
2022/01/04 05:04:19;;;;;;;3.40;1.60;;;;;;;18.62;56.17;98719.94;5074862;28;20085;-82
2022/01/04 05:06:45;;;;;;;5.32;2.35;;;;;;;18.62;55.84;98709.38;5075847;28;20039;-80
2022/01/04 05:09:10;;;;;;;4.53;2.10;;;;;;;18.60;55.90;98698.06;5074703;28;20370;-79
2022/01/04 05:11:36;;;;;;;3.47;1.80;;;;;;;18.59;56.17;98704.31;5074822;28;20025;-80
2022/01/04 05:14:01;;;;;;;5.43;1.90;;;;;;;18.58;55.86;98692.00;5075557;28;20024;-79
2022/01/04 05:16:27;;;;;;;3.92;2.42;;;;;;;18.61;55.84;98668.06;5075696;28;20089;-81
2022/01/04 05:18:54;;;;;;;3.58;2.00;;;;;;;18.58;55.72;98678.81;5074693;28;20108;-81
2022/01/04 05:21:19;;;;;;;4.95;2.17;;;;;;;18.62;55.97;98685.59;5074600;28;20028;-79
2022/01/04 05:23:45;;;;;;;3.80;2.08;;;;;;;18.58;56.05;98677.03;5074527;28;20046;-80
2022/01/04 05:26:10;;;;;;;5.85;2.30;;;;;;;18.59;56.03;98667.31;5075531;28;20372;-81
2022/01/04 05:28:38;;;;;;;3.47;2.10;;;;;;;18.60;55.65;98655.78;5074326;28;20554;-80
2022/01/04 05:31:04;;;;;;;3.80;2.10;;;;;;;18.55;55.44;98636.75;5075334;28;20035;-81
2022/01/04 05:33:29;;;;;;;4.28;2.35;;;;;;;18.56;55.50;98643.72;5075251;28;20029;-79
2022/01/04 05:35:55;;;;;;;4.07;2.10;;;;;;;18.56;55.71;98636.66;5073816;28;20045;-83
2022/01/04 05:38:21;;;;;;;5.43;2.47;;;;;;;18.55;55.32;98605.03;5075222;28;20020;-80
2022/01/04 05:40:46;;;;;;;4.75;2.60;;;;;;;18.51;55.43;98625.53;5074231;28;20024;-80
2022/01/04 05:43:13;;;;;;;3.53;2.45;;;;;;;18.50;55.07;98624.66;5075060;28;20078;-80
2022/01/04 05:45:39;;;;;;;4.93;2.40;;;;;;;18.51;55.35;98641.38;5075148;28;20166;-79
2022/01/04 05:48:05;;;;;;;4.22;2.25;;;;;;;18.52;55.21;98633.34;5074009;28;20021;-79
2022/01/04 05:50:32;;;;;;;4.32;2.38;;;;;;;18.49;55.02;98625.63;5075147;28;20027;-80
2022/01/04 05:52:57;;;;;;;3.78;2.17;;;;;;;18.50;55.19;98624.66;5074048;28;20035;-79
2022/01/04 05:55:23;;;;;;;4.10;2.25;;;;;;;18.50;55.37;98619.38;5075020;28;20025;-82
2022/01/04 05:57:48;;;;;;;5.82;2.65;;;;;;;18.47;55.52;98624.88;5074050;28;20028;-80
2022/01/04 06:00:15;;;;;;;6.18;2.20;;;;;;;18.47;55.38;98613.44;5074830;28;20024;-80
2022/01/04 06:02:40;;;;;;;7.75;2.60;;;;;;;18.47;55.39;98606.38;5075302;28;20031;-83
2022/01/04 06:05:08;;;;;;;4.80;2.25;;;;;;;18.43;55.17;98602.22;5074897;28;20016;-82
2022/01/04 06:07:34;;;;;;;5.35;1.90;;;;;;;18.43;55.56;98611.94;5074933;28;20024;-78
2022/01/04 06:10:00;;;;;;;5.03;2.17;;;;;;;18.48;55.44;98617.78;5074680;28;20413;-83
2022/01/04 06:14:52;;;;;;;5.90;2.67;;;;;;;18.43;55.53;98618.09;5074575;28;20096;-83
2022/01/04 06:17:20;;;;;;;6.65;2.30;;;;;;;18.46;55.66;98604.66;5073611;28;20017;-80
2022/01/04 06:19:46;;;;;;;5.63;2.60;;;;;;;18.46;55.91;98611.75;5073653;28;20410;-80
2022/01/04 06:22:11;;;;;;;4.88;2.28;;;;;;;18.46;55.70;98617.88;5074672;28;20060;-85
2022/01/04 06:24:37;;;;;;;6.78;2.47;;;;;;;18.45;55.86;98608.25;5090590;28;20542;-81
2022/01/04 06:27:07;;;;;;;5.75;2.20;;;;;;;18.47;56.01;98587.88;5075153;28;20098;-83
2022/01/04 06:29:34;;;;;;;5.95;2.05;;;;;;;18.43;55.96;98594.31;5074235;28;20102;-81
2022/01/04 06:31:59;;;;;;;6.30;2.70;;;;;;;18.47;55.64;98593.19;5074379;28;20098;-79
2022/01/04 06:34:25;;;;;;;6.65;2.22;;;;;;;18.45;55.82;98595.03;5074119;28;20048;-80
2022/01/04 06:36:50;;;;;;;5.85;2.47;;;;;;;18.47;55.66;98592.31;5074486;28;20035;-79
2022/01/04 06:39:16;;;;;;;4.90;2.28;;;;;;;18.45;55.40;98591.56;5074579;28;20450;-83
2022/01/04 06:41:41;;;;;;;9.80;2.05;;;;;;;18.47;55.78;98579.97;5074328;28;20103;-79
2022/01/04 06:44:07;;;;;;;7.28;2.30;;;;;;;18.47;55.59;98587.03;5070648;28;20024;-82
2022/01/04 06:46:33;;;;;;;4.88;2.47;;;;;;;18.46;55.58;98587.97;5061030;28;20029;-79
2022/01/04 06:48:59;;;;;;;5.13;2.50;;;;;;;18.46;55.49;98575.59;5070069;28;20024;-78
2022/01/04 06:51:24;;;;;;;5.05;2.55;;;;;;;18.47;55.45;98574.69;5062379;28;20079;-79
2022/01/04 06:53:50;;;;;;;8.43;3.50;;;;;;;18.43;55.47;98570.53;5079091;28;20466;-79
2022/01/04 06:56:15;;;;;;;6.25;3.00;;;;;;;18.45;55.39;98571.28;5059351;28;20021;-78
2022/01/04 06:58:41;;;;;;;11.60;3.00;;;;;;;18.46;55.63;98565.03;5061568;28;20032;-78
2022/01/04 07:01:07;;;;;;;7.03;2.95;;;;;;;18.46;55.50;98557.13;5064287;28;20485;-77
2022/01/04 07:03:32;;;;;;;7.55;2.72;;;;;;;18.47;55.62;98579.09;5079555;28;20067;-78
2022/01/04 07:05:58;;;;;;;4.80;2.67;;;;;;;18.47;55.72;98573.81;5065512;28;20100;-78
2022/01/04 07:08:23;;;;;;;7.55;3.58;;;;;;;18.49;55.61;98554.28;5076626;28;20021;-78
2022/01/04 07:10:49;;;;;;;5.70;3.13;;;;;;;18.47;55.45;98548.28;5078697;28;20036;-79
2022/01/04 07:13:14;;;;;;;6.60;3.22;;;;;;;18.46;55.65;98546.53;5080172;28;20455;-79
2022/01/04 07:15:40;;;;;;;8.98;3.55;;;;;;;18.48;55.51;98552.59;5062246;28;20029;-79
2022/01/04 07:18:06;;;;;;;8.13;3.53;;;;;;;18.47;55.45;98557.97;5063327;28;20111;-80
2022/01/04 07:20:32;;;;;;;6.95;3.67;;;;;;;18.44;55.57;98540.53;5063982;28;20051;-80
2022/01/04 07:22:57;;;;;;;9.63;4.25;;;;;;;18.43;55.45;98532.69;5062179;28;20021;-76
2022/01/04 07:25:24;;;;;;;8.57;4.35;;;;;;;18.40;55.24;98523.16;5063118;28;20481;-79
2022/01/04 07:27:50;;;;;;;8.07;4.30;;;;;;;18.40;55.29;98522.34;5076497;28;20029;-81
2022/01/04 07:30:15;;;;;;;6.35;3.90;;;;;;;18.43;55.19;98528.28;5063559;28;20025;-82
2022/01/04 07:32:41;;;;;;;9.23;4.57;;;;;;;18.38;55.17;98525.94;5067199;28;20060;-88
2022/01/04 07:35:07;;;;;;;7.95;4.38;;;;;;;18.36;55.31;98532.25;5089645;28;20467;-82
2022/01/04 07:37:32;;;;;;;8.48;4.80;;;;;;;18.38;55.37;98540.94;5089637;28;20028;-79
2022/01/04 07:39:58;;;;;;;10.48;4.10;;;;;;;18.40;55.56;98544.31;5088677;28;20029;-84
2022/01/04 07:42:24;;;;;;;7.07;4.05;;;;;;;18.42;55.94;98547.72;5091539;28;20029;-81
2022/01/04 07:44:49;;;;;;;10.65;4.18;;;;;;;18.42;56.01;98542.44;5075744;28;20451;-82
2022/01/04 07:47:15;;;;;;;8.10;4.10;;;;;;;18.43;55.90;98546.75;5075362;28;20031;-82
2022/01/04 07:49:40;;;;;;;10.00;4.70;;;;;;;18.41;56.18;98559.22;5074386;28;20055;-82
2022/01/04 07:52:06;;;;;;;8.55;5.32;;;;;;;18.43;55.73;98567.91;5091164;28;20024;-82
2022/01/04 07:54:32;;;;;;;11.85;5.57;;;;;;;18.47;55.85;98581.75;5075189;28;20028;-83
2022/01/04 07:56:57;;;;;;;8.90;4.88;;;;;;;18.44;55.92;98566.94;5091182;28;20348;-82
2022/01/04 07:59:23;;;;;;;10.27;4.93;;;;;;;18.44;55.90;98582.78;5092035;28;20053;-81
2022/01/04 08:01:49;;;;;;;8.05;4.43;;;;;;;18.44;56.20;98588.06;5092916;28;20029;-83
2022/01/04 08:04:14;;;;;;;10.52;5.10;;;;;;;18.44;56.02;98588.06;5077174;28;20056;-80
2022/01/04 08:06:40;;;;;;;9.38;4.93;;;;;;;18.43;56.14;98586.38;5077086;28;20028;-83
2022/01/04 08:09:06;;;;;;;8.32;4.68;;;;;;;18.42;56.17;98592.63;5077000;28;20471;-82
2022/01/04 08:11:31;;;;;;;9.30;4.90;;;;;;;18.44;56.15;98582.78;5092726;28;20119;-85
2022/01/04 08:13:57;;;;;;;7.88;4.93;;;;;;;18.43;56.26;98591.66;5076959;28;20064;-81
2022/01/04 08:16:22;;;;;;;8.40;5.22;;;;;;;18.43;55.95;98594.31;5077171;28;20028;-81
2022/01/04 08:18:48;;;;;;;8.27;4.50;;;;;;;18.42;56.10;98595.25;5076779;28;20025;-83
2022/01/04 08:21:14;;;;;;;9.75;4.85;;;;;;;18.37;56.11;98594.69;5076719;28;20481;-81
2022/01/04 08:23:39;;;;;;;11.43;5.18;;;;;;;18.40;56.03;98586.56;5076848;28;20482;-82
2022/01/04 08:26:05;;;;;;;8.35;4.80;;;;;;;18.37;56.14;98592.06;5092519;28;20078;-84
2022/01/04 08:28:31;;;;;;;9.23;4.60;;;;;;;18.38;56.30;98583.19;5076482;28;20117;-85
2022/01/04 08:30:57;;;;;;;10.90;4.97;;;;;;;18.37;55.83;98570.94;5075545;28;20024;-82
2022/01/04 08:33:23;;;;;;;9.18;5.20;;;;;;;18.35;56.15;98583.41;5076788;28;20025;-80
2022/01/04 08:35:48;;;;;;;8.63;5.22;;;;;;;18.37;56.06;98577.03;5076244;28;20040;-84
2022/01/04 08:38:14;;;;;;;8.98;4.88;;;;;;;18.34;55.89;98568.47;5092746;28;20020;-80
2022/01/04 08:40:39;;;;;;;8.60;5.10;;;;;;;18.31;55.98;98560.75;5092331;28;20043;-84
2022/01/04 08:43:05;;;;;;;10.27;5.70;;;;;;;18.34;55.80;98560.56;5092439;28;20028;-83
2022/01/04 08:45:32;;;;;;;8.63;5.75;;;;;;;18.27;55.98;98564.53;5076155;28;20024;-80
2022/01/04 08:47:59;;;;;;;10.20;5.65;;;;;;;18.27;55.58;98553.97;5076444;28;20032;-80
2022/01/04 08:50:27;;;;;;;12.23;5.78;;;;;;;18.30;55.98;98564.34;5092102;28;20035;-80
2022/01/04 08:52:54;;;;;;;10.90;5.55;;;;;;;18.29;55.73;98558.22;5092059;28;20036;-79
2022/01/04 08:55:21;;;;;;;10.65;6.13;;;;;;;18.27;55.83;98557.47;5075971;28;20476;-80
2022/01/04 08:57:49;;;;;;;9.10;5.90;;;;;;;18.23;55.71;98548.91;5076162;28;20099;-78
2022/01/04 09:00:15;;;;;;;8.23;5.93;;;;;;;18.22;55.82;98570.94;5091846;28;20348;-80
2022/01/04 09:02:41;;;;;;;8.75;5.03;;;;;;;18.24;56.07;98555.88;5076261;28;20040;-79
2022/01/04 09:05:07;;;;;;;8.55;6.07;;;;;;;18.24;55.87;98560.28;5075896;28;20025;-80
2022/01/04 09:07:33;;;;;;;8.90;5.57;;;;;;;18.24;55.80;98555.00;5075855;28;20520;-80
2022/01/04 09:09:59;;;;;;;9.57;5.65;;;;;;;18.25;55.74;98562.84;5075693;28;20020;-82
2022/01/04 09:12:32;;;;;;;11.23;6.63;;;;;;;18.22;55.69;98541.91;5075877;28;20043;-81
2022/01/04 09:15:06;;;;;;;9.02;6.25;;;;;;;18.21;55.61;98545.50;5075679;28;20051;-79
2022/01/04 09:20:16;;;;;;;10.15;6.30;;;;;;;18.19;55.80;98552.69;5075574;28;20147;-80
2022/01/04 09:22:41;;;;;;;9.43;6.53;;;;;;;18.17;55.69;98544.00;5075488;28;20073;-79
2022/01/04 09:25:09;;;;;;;8.95;5.95;;;;;;;18.17;55.78;98544.00;5075696;28;20028;-80
2022/01/04 09:27:36;;;;;;;8.90;6.40;;;;;;;18.19;55.65;98550.03;5091371;28;20111;-81
2022/01/04 09:30:04;;;;;;;12.65;6.63;;;;;;;18.13;56.02;98550.44;5091301;28;20062;-83
2022/01/04 09:32:35;;;;;;;9.70;6.72;;;;;;;18.14;55.71;98544.19;5075215;28;20028;-81
2022/01/04 09:35:01;;;;;;;8.65;5.65;;;;;;;18.10;55.86;98542.69;5074911;28;20352;-81
2022/01/04 09:37:27;;;;;;;11.57;6.65;;;;;;;18.14;55.63;98557.41;5091236;28;20085;-80
2022/01/04 09:39:53;;;;;;;11.35;7.15;;;;;;;18.12;55.80;98561.94;5075207;28;20024;-82
2022/01/04 09:42:20;;;;;;;10.38;6.78;;;;;;;18.12;55.65;98556.66;5075302;28;20103;-81
2022/01/04 09:44:48;;;;;;;9.60;6.10;;;;;;;18.07;55.94;98553.47;5075084;28;20024;-80
2022/01/04 09:47:13;;;;;;;10.05;6.72;;;;;;;18.11;55.59;98557.56;5075372;28;20103;-81
2022/01/04 09:49:39;;;;;;;10.35;6.40;;;;;;;18.16;55.58;98560.78;5074129;28;20256;-79
2022/01/04 09:52:08;;;;;;;9.55;6.43;;;;;;;18.11;55.70;98587.47;5091032;28;20429;-80
2022/01/04 09:54:35;;;;;;;9.32;6.00;;;;;;;18.14;55.64;98604.94;5090975;28;20354;-80
2022/01/04 09:57:00;;;;;;;7.82;5.95;;;;;;;18.14;55.88;98623.41;5090783;28;20115;-81
2022/01/04 09:59:26;;;;;;;10.38;6.13;;;;;;;18.13;55.90;98616.44;5075006;28;20169;-83
2022/01/04 10:01:59;;;;;;;10.68;6.25;;;;;;;18.13;55.57;98613.78;5075120;28;20048;-79
2022/01/04 10:04:26;;;;;;;8.70;5.50;;;;;;;18.14;55.61;98599.66;5074634;28;20047;-80
2022/01/04 10:07:08;;;;;;;7.75;5.53;;;;;;;18.13;55.71;98599.72;5090617;28;20032;-79
2022/01/04 10:09:36;;;;;;;9.38;5.78;;;;;;;18.15;55.53;98596.06;5090370;28;20041;-79
2022/01/04 10:12:05;;;;;;;8.57;5.60;;;;;;;18.13;55.65;98589.16;5090642;28;20066;-80
2022/01/04 10:14:38;;;;;;;9.10;5.50;;;;;;;18.14;55.97;98586.44;5074649;28;20379;-80
2022/01/04 10:17:11;;;;;;;8.63;6.00;;;;;;;18.16;55.73;98595.09;5074778;28;20024;-80
2022/01/04 10:19:40;;;;;;;9.18;5.88;;;;;;;18.17;55.65;98591.53;5074693;28;20530;-79
2022/01/04 10:22:14;;;;;;;9.15;5.35;;;;;;;18.16;55.65;98591.63;5073668;28;20373;-80
2022/01/04 10:24:40;;;;;;;9.70;6.15;;;;;;;18.17;55.55;98599.47;5090353;28;20032;-81
2022/01/04 10:27:28;;;;;;;8.15;5.45;;;;;;;18.18;55.84;98614.34;5090534;28;20056;-85
2022/01/04 10:30:30;;;;;;;9.18;5.50;;;;;;;18.16;55.72;98610.94;5074587;28;20025;-84
2022/01/04 10:33:05;;;;;;;8.13;5.22;;;;;;;18.20;55.64;98611.59;5074631;28;20552;-83
2022/01/04 10:35:45;;;;;;;8.27;5.60;;;;;;;18.15;55.55;98601.34;5074267;28;20109;-82
2022/01/04 10:38:24;;;;;;;9.02;5.65;;;;;;;18.20;55.60;98606.31;5074574;28;20105;-83
2022/01/04 10:41:09;;;;;;;8.88;5.70;;;;;;;18.16;55.67;98600.38;5074805;28;20070;-84
2022/01/04 10:43:55;;;;;;;7.80;5.25;;;;;;;18.16;55.78;98605.66;5074488;28;20029;-85
2022/01/04 10:46:41;;;;;;;9.00;6.00;;;;;;;18.15;55.61;98598.69;5090389;28;20370;-84
2022/01/04 10:49:17;;;;;;;;;;;;;;;18.15;55.63;98588.13;5090409;28;20032;-84
2022/01/04 10:51:44;;;;;;;8.43;5.78;;;;;;;18.15;55.73;98582.84;5074257;28;19916;-81
2022/01/04 10:54:18;;;;;;;8.83;6.37;;;;;;;18.18;55.51;98587.09;5074315;28;20032;-83
2022/01/04 10:56:44;;;;;;;7.63;5.05;;;;;;;18.15;55.72;98580.22;5090229;28;20028;-83
2022/01/04 10:59:11;;;;;;;10.63;6.30;;;;;;;18.17;55.72;98557.22;5074275;28;20443;-85
2022/01/04 11:01:43;;;;;;;9.63;6.13;;;;;;;18.15;55.76;98556.44;5074772;28;20032;-79
2022/01/04 11:04:14;;;;;;;9.75;5.70;;;;;;;18.16;55.80;98559.94;5074344;28;20036;-79
2022/01/04 11:06:41;;;;;;;9.50;6.63;;;;;;;18.18;55.74;98551.00;5089957;28;20486;-80
2022/01/04 11:09:08;;;;;;;9.02;5.80;;;;;;;18.16;55.50;98542.28;5074186;28;20108;-80
2022/01/04 11:11:34;;;;;;;9.95;6.85;;;;;;;18.17;55.51;98541.38;5074186;28;20452;-80
2022/01/04 11:14:00;;;;;;;12.07;7.38;;;;;;;18.18;55.42;98529.88;5073932;28;20043;-80
2022/01/04 11:16:27;;;;;;;10.43;6.93;;;;;;;18.18;55.72;98524.59;5074009;28;20032;-80
2022/01/04 11:18:55;;;;;;;11.15;6.95;;;;;;;18.19;55.56;98515.72;5094085;28;20405;-79
2022/01/04 11:21:25;;;;;;;11.93;7.63;;;;;;;18.17;55.69;98522.03;5077796;28;20028;-80
2022/01/04 11:23:53;;;;;;;11.07;7.32;;;;;;;18.16;55.42;98518.53;5077930;28;20103;-80
2022/01/04 11:26:19;;;;;;;10.43;7.05;;;;;;;18.15;55.84;98508.94;5093565;28;20168;-80
2022/01/04 11:28:48;;;;;;;10.93;7.15;;;;;;;18.15;55.83;98511.56;5093614;28;20497;-79
2022/01/04 11:31:41;;;;;;;12.57;7.85;;;;;;;18.15;55.84;98502.81;5077637;28;20028;-79
2022/01/04 11:34:09;;;;;;;10.38;6.60;;;;;;;18.16;55.72;98494.78;5077459;28;20420;-79
2022/01/04 11:36:36;;;;;;;12.98;8.63;;;;;;;18.18;55.78;98490.25;5076422;28;20025;-81
2022/01/04 11:39:26;;;;;;;13.77;8.80;;;;;;;18.18;55.78;98487.63;5077527;28;20024;-79
2022/01/04 11:41:51;;;;;;;9.95;7.50;;;;;;;18.15;55.80;98479.88;5093270;28;20044;-80